createdAt,value
2022-11-13T00:01:24.524Z,12.50
2022-11-13T00:03:53.124Z,12.50
2022-11-13T00:06:21.708Z,12.50
2022-11-13T00:08:54.201Z,12.60
2022-11-13T00:11:24.151Z,12.60
2022-11-13T00:13:52.752Z,12.50
2022-11-13T00:16:22.539Z,12.50
2022-11-13T00:18:50.892Z,12.50
2022-11-13T00:21:21.488Z,12.50
2022-11-13T00:23:50.360Z,12.50
2022-11-13T00:26:20.811Z,12.50
2022-11-13T00:28:54.123Z,12.50
2022-11-13T00:31:23.383Z,12.50
2022-11-13T00:34:13.924Z,12.50
2022-11-13T00:36:41.391Z,12.50
2022-11-13T00:39:10.522Z,12.50
2022-11-13T00:41:38.903Z,12.50
2022-11-13T00:44:09.063Z,12.50
2022-11-13T00:46:37.428Z,12.50
2022-11-13T00:49:05.741Z,12.50
2022-11-13T00:51:34.609Z,12.50
2022-11-13T00:54:03.010Z,12.50
2022-11-13T00:56:31.476Z,12.50
2022-11-13T00:59:00.139Z,12.50
2022-11-13T01:01:29.999Z,12.50
2022-11-13T01:03:58.364Z,12.50
2022-11-13T01:06:28.791Z,12.50
2022-11-13T01:08:58.146Z,12.50
2022-11-13T01:11:28.593Z,12.50
2022-11-13T01:13:57.873Z,12.50
2022-11-13T01:16:29.532Z,12.50
2022-11-13T01:18:58.570Z,12.50
2022-11-13T01:21:28.789Z,12.50
2022-11-13T01:23:57.677Z,12.50
2022-11-13T01:26:28.422Z,12.50
2022-11-13T01:28:58.259Z,12.50
2022-11-13T01:31:30.191Z,12.50
2022-11-13T01:33:58.853Z,12.50
2022-11-13T01:36:29.227Z,12.50
2022-11-13T01:38:58.357Z,12.50
2022-11-13T01:41:28.366Z,12.50
2022-11-13T01:43:57.601Z,12.50
2022-11-13T01:46:29.770Z,12.50
2022-11-13T01:49:05.769Z,12.50
2022-11-13T01:51:37.776Z,12.50
2022-11-13T01:54:10.655Z,12.50
2022-11-13T01:56:40.221Z,12.40
2022-11-13T01:59:11.260Z,12.50
2022-11-13T02:01:41.514Z,12.50
2022-11-13T02:04:10.057Z,12.50
2022-11-13T02:06:42.350Z,12.50
2022-11-13T02:09:12.686Z,12.50
2022-11-13T02:11:41.974Z,12.50
2022-11-13T02:14:12.800Z,12.40
2022-11-13T02:16:44.116Z,12.50
2022-11-13T02:19:19.086Z,12.50
2022-11-13T02:21:54.559Z,12.50
2022-11-13T02:24:28.970Z,12.40
2022-11-13T02:27:02.291Z,12.40
2022-11-13T02:29:30.866Z,12.50
2022-11-13T02:31:59.444Z,12.40
2022-11-13T02:34:27.756Z,12.40
2022-11-13T02:36:56.314Z,12.40
2022-11-13T02:39:25.918Z,12.50
2022-11-13T02:41:54.240Z,12.40
2022-11-13T02:44:22.801Z,12.40
2022-11-13T02:46:51.368Z,12.40
2022-11-13T02:49:19.861Z,12.40
2022-11-13T02:51:48.207Z,12.40
2022-11-13T02:54:17.234Z,12.40
2022-11-13T02:56:47.463Z,12.40
2022-11-13T02:59:15.796Z,12.40
2022-11-13T03:01:44.156Z,12.40
2022-11-13T03:04:12.757Z,12.40
2022-11-13T03:06:41.145Z,12.40
2022-11-13T03:09:09.470Z,12.40
2022-11-13T03:11:37.991Z,12.40
2022-11-13T03:14:07.759Z,12.40
2022-11-13T03:16:36.706Z,12.40
2022-11-13T03:19:05.617Z,12.40
2022-11-13T03:21:35.115Z,12.40
2022-11-13T03:24:03.738Z,12.40
2022-11-13T03:26:32.071Z,12.40
2022-11-13T03:29:00.670Z,12.30
2022-11-13T03:31:30.600Z,12.40
2022-11-13T03:33:58.997Z,12.40
2022-11-13T03:36:27.682Z,12.40
2022-11-13T03:38:55.950Z,12.40
2022-11-13T03:41:24.626Z,12.30
2022-11-13T03:43:53.192Z,12.30
2022-11-13T03:46:21.410Z,12.30
2022-11-13T03:48:51.083Z,12.30
2022-11-13T03:51:19.634Z,12.40
2022-11-13T03:53:48.011Z,12.30
2022-11-13T03:56:16.285Z,12.30
2022-11-13T03:58:49.331Z,12.30
2022-11-13T04:01:18.114Z,12.30
2022-11-13T04:03:46.646Z,12.40
2022-11-13T04:06:16.289Z,12.30
2022-11-13T04:08:44.900Z,12.30
2022-11-13T04:11:14.385Z,12.30
2022-11-13T04:13:42.992Z,12.30
2022-11-13T04:16:11.308Z,12.30
2022-11-13T04:18:39.892Z,12.30
2022-11-13T04:21:08.419Z,12.30
2022-11-13T04:23:38.035Z,12.30
2022-11-13T04:26:06.761Z,12.30
2022-11-13T04:28:35.112Z,12.30
2022-11-13T04:31:03.482Z,12.30
2022-11-13T04:33:32.100Z,12.30
2022-11-13T04:36:00.592Z,12.30
2022-11-13T04:38:29.244Z,12.30
2022-11-13T04:41:13.575Z,12.30
2022-11-13T04:43:41.917Z,12.30
2022-11-13T04:46:10.443Z,12.30
2022-11-13T04:48:38.760Z,12.30
2022-11-13T04:51:07.418Z,12.30
2022-11-13T04:53:36.126Z,12.30
2022-11-13T04:56:06.588Z,12.30
2022-11-13T04:58:35.154Z,12.30
2022-11-13T05:01:05.098Z,12.30
2022-11-13T05:03:33.466Z,12.30
2022-11-13T05:06:06.404Z,12.30
2022-11-13T05:08:35.290Z,12.30
2022-11-13T05:11:05.486Z,12.30
2022-11-13T05:13:35.223Z,12.20
2022-11-13T05:16:04.922Z,12.30
2022-11-13T05:18:34.068Z,12.30
2022-11-13T05:21:03.135Z,12.30
2022-11-13T05:23:31.716Z,12.30
2022-11-13T05:26:03.519Z,12.30
2022-11-13T05:28:33.917Z,12.30
2022-11-13T05:31:06.507Z,12.30
2022-11-13T05:33:35.666Z,12.30
2022-11-13T05:36:04.859Z,12.20
2022-11-13T05:38:33.925Z,12.20
2022-11-13T05:41:06.958Z,12.20
2022-11-13T05:43:37.737Z,12.20
2022-11-13T05:46:08.245Z,12.20
2022-11-13T05:48:37.651Z,12.20
2022-11-13T05:51:07.625Z,12.20
2022-11-13T05:53:36.603Z,12.30
2022-11-13T05:56:07.543Z,12.20
2022-11-13T05:58:38.273Z,12.20
2022-11-13T06:01:12.056Z,12.20
2022-11-13T06:03:41.194Z,12.20
2022-11-13T06:06:12.299Z,12.20
2022-11-13T06:08:40.967Z,12.20
2022-11-13T06:11:11.744Z,12.20
2022-11-13T06:13:42.025Z,12.20
2022-11-13T06:16:13.485Z,12.20
2022-11-13T06:18:43.353Z,12.20
2022-11-13T06:21:13.708Z,12.20
2022-11-13T06:23:42.688Z,12.20
2022-11-13T06:26:13.815Z,12.20
2022-11-13T06:28:48.217Z,12.20
2022-11-13T06:31:19.925Z,12.20
2022-11-13T06:33:48.998Z,12.30
2022-11-13T06:36:19.943Z,12.30
2022-11-13T06:38:49.200Z,12.30
2022-11-13T06:41:20.193Z,12.30
2022-11-13T06:43:50.823Z,12.30
2022-11-13T06:46:21.872Z,12.30
2022-11-13T06:48:51.527Z,12.30
2022-11-13T06:51:23.546Z,12.40
2022-11-13T06:53:52.760Z,12.40
2022-11-13T06:56:22.476Z,12.40
2022-11-13T06:58:52.919Z,12.40
2022-11-13T07:01:24.222Z,12.50
2022-11-13T07:03:53.341Z,12.50
2022-11-13T07:06:25.318Z,12.50
2022-11-13T07:08:54.125Z,12.50
2022-11-13T07:11:24.953Z,12.50
2022-11-13T07:13:54.937Z,12.50
2022-11-13T07:16:24.023Z,12.60
2022-11-13T07:18:53.673Z,12.60
2022-11-13T07:21:23.441Z,12.60
2022-11-13T07:23:52.673Z,12.60
2022-11-13T07:26:21.688Z,12.60
2022-11-13T07:28:51.355Z,12.60
2022-11-13T07:31:22.119Z,12.60
2022-11-13T07:33:52.831Z,12.70
2022-11-13T07:36:22.213Z,12.70
2022-11-13T07:38:55.587Z,12.70
2022-11-13T07:41:28.292Z,12.70
2022-11-13T07:43:57.189Z,12.70
2022-11-13T07:46:27.438Z,12.70
2022-11-13T07:48:56.032Z,12.70
2022-11-13T07:51:25.697Z,12.80
2022-11-13T07:53:54.417Z,12.80
2022-11-13T07:56:25.472Z,12.80
2022-11-13T07:58:53.824Z,12.80
2022-11-13T08:01:22.476Z,12.80
2022-11-13T08:03:52.300Z,12.80
2022-11-13T08:06:20.897Z,12.90
2022-11-13T08:08:50.136Z,12.90
2022-11-13T08:11:18.815Z,12.90
2022-11-13T08:13:47.188Z,13.00
2022-11-13T08:16:15.937Z,13.00
2022-11-13T08:18:44.169Z,13.10
2022-11-13T08:21:15.197Z,13.00
2022-11-13T08:23:44.323Z,13.10
2022-11-13T08:26:13.171Z,13.10
2022-11-13T08:28:42.892Z,13.10
2022-11-13T08:31:12.968Z,13.10
2022-11-13T08:33:42.497Z,13.00
2022-11-13T08:36:13.054Z,13.10
2022-11-13T08:38:41.489Z,13.00
2022-11-13T08:41:10.570Z,13.10
2022-11-13T08:43:39.365Z,13.20
2022-11-13T08:46:09.254Z,13.20
2022-11-13T08:48:38.295Z,13.30
2022-11-13T08:51:07.774Z,13.30
2022-11-13T08:53:38.317Z,13.30
2022-11-13T08:56:08.436Z,13.40
2022-11-13T08:58:37.445Z,13.40
2022-11-13T09:01:07.363Z,13.40
2022-11-13T09:03:37.450Z,13.50
2022-11-13T09:06:08.462Z,13.50
2022-11-13T09:08:38.846Z,13.50
2022-11-13T09:11:08.361Z,13.50
2022-11-13T09:13:42.788Z,13.50
2022-11-13T09:16:13.494Z,13.50
2022-11-13T09:18:42.145Z,13.50
2022-11-13T09:21:12.548Z,13.60
2022-11-13T09:23:42.708Z,13.60
2022-11-13T09:26:11.774Z,13.60
2022-11-13T09:28:41.044Z,13.60
2022-11-13T09:31:10.037Z,13.60
2022-11-13T09:33:38.677Z,13.50
2022-11-13T09:36:13.057Z,13.50
2022-11-13T09:38:43.070Z,13.50
2022-11-13T09:41:14.490Z,13.50
2022-11-13T09:43:46.603Z,13.50
2022-11-13T09:46:22.149Z,13.60
2022-11-13T09:48:55.583Z,13.60
2022-11-13T09:51:29.808Z,13.60
2022-11-13T09:54:00.209Z,13.60
2022-11-13T09:56:32.516Z,13.60
2022-11-13T09:59:16.746Z,13.50
2022-11-13T10:01:53.551Z,13.40
2022-11-13T10:04:31.562Z,13.40
2022-11-13T10:07:10.486Z,13.40
2022-11-13T10:09:53.791Z,13.40
2022-11-13T10:12:23.413Z,13.40
2022-11-13T10:14:55.286Z,13.40
2022-11-13T10:17:30.250Z,13.40
2022-11-13T10:20:01.222Z,13.50
2022-11-13T10:22:37.178Z,13.50
2022-11-13T10:25:15.436Z,13.50
2022-11-13T10:27:46.282Z,13.50
2022-11-13T10:30:17.022Z,13.50
2022-11-13T10:32:46.719Z,13.50
2022-11-13T10:35:33.135Z,13.50
2022-11-13T10:38:08.126Z,13.50
2022-11-13T10:40:40.739Z,13.50
2022-11-13T10:43:16.460Z,13.50
2022-11-13T10:45:54.877Z,13.40
2022-11-13T10:48:25.110Z,13.40
2022-11-13T10:50:58.965Z,13.40
2022-11-13T10:53:34.194Z,13.40
2022-11-13T10:56:12.706Z,13.40
2022-11-13T10:58:41.393Z,13.30
2022-11-13T11:01:17.028Z,13.30
2022-11-13T11:03:51.175Z,13.40
2022-11-13T11:06:19.671Z,13.40
2022-11-13T11:08:48.492Z,13.40
2022-11-13T11:11:37.145Z,13.40
2022-11-13T11:14:11.890Z,13.50
2022-11-13T11:16:41.055Z,13.50
2022-11-13T11:19:14.184Z,13.50
2022-11-13T11:21:44.102Z,13.50
2022-11-13T11:24:19.484Z,13.60
2022-11-13T11:26:56.718Z,13.60
2022-11-13T11:29:31.721Z,13.70
2022-11-13T11:32:05.973Z,13.70
2022-11-13T11:34:41.645Z,13.70
2022-11-13T11:37:15.455Z,13.70
2022-11-13T11:39:48.906Z,13.70
2022-11-13T11:42:35.598Z,13.70
2022-11-13T11:45:12.815Z,13.70
2022-11-13T11:47:41.502Z,13.70
2022-11-13T11:50:16.738Z,13.70
2022-11-13T11:52:57.212Z,13.70
2022-11-13T11:56:00.077Z,13.70
2022-11-13T11:59:00.127Z,13.70
2022-11-13T12:01:46.823Z,13.80
2022-11-13T12:04:30.307Z,13.90
2022-11-13T12:07:12.342Z,14.00
2022-11-13T12:09:47.867Z,14.00
2022-11-13T12:12:25.920Z,14.00
2022-11-13T12:15:04.286Z,14.10
2022-11-13T12:17:47.612Z,14.10
2022-11-13T12:20:27.557Z,14.00
2022-11-13T12:23:06.907Z,13.90
2022-11-13T12:25:42.912Z,13.90
2022-11-13T12:28:21.137Z,13.80
2022-11-13T12:31:00.515Z,13.70
2022-11-13T12:33:39.045Z,13.70
2022-11-13T12:36:10.724Z,13.60
2022-11-13T12:38:48.884Z,13.60
2022-11-13T12:41:25.954Z,13.50
2022-11-13T12:44:20.904Z,13.50
2022-11-13T12:46:51.691Z,13.50
2022-11-13T12:49:32.959Z,13.40
2022-11-13T12:52:03.665Z,13.40
2022-11-13T12:54:34.255Z,13.30
2022-11-13T12:57:24.432Z,13.30
2022-11-13T12:59:57.747Z,13.30
2022-11-13T13:02:41.183Z,13.30
2022-11-13T13:05:29.872Z,13.20
2022-11-13T13:08:38.176Z,13.20
2022-11-13T13:11:17.116Z,13.20
2022-11-13T13:13:50.896Z,13.10
2022-11-13T13:16:26.049Z,13.10
2022-11-13T13:19:08.149Z,13.00
2022-11-13T13:21:44.558Z,13.00
2022-11-13T13:24:31.725Z,13.00
2022-11-13T13:27:01.377Z,13.00
2022-11-13T13:29:31.483Z,12.90
2022-11-13T13:32:12.224Z,12.90
2022-11-13T13:34:54.600Z,12.90
2022-11-13T13:37:34.975Z,12.90
2022-11-13T13:40:19.181Z,12.80
2022-11-13T13:43:03.298Z,12.80
2022-11-13T13:45:42.170Z,12.80
2022-11-13T13:48:12.362Z,12.80
2022-11-13T13:50:46.412Z,12.70
2022-11-13T13:53:18.710Z,12.70
2022-11-13T13:55:50.563Z,12.60
2022-11-13T13:58:24.190Z,12.60
2022-11-13T14:01:17.857Z,12.60
2022-11-13T14:03:48.156Z,12.60
2022-11-13T14:06:22.584Z,12.60
2022-11-13T14:08:51.602Z,12.60
2022-11-13T14:11:22.627Z,12.50
2022-11-13T14:13:51.040Z,12.50
2022-11-13T14:16:19.865Z,12.50
2022-11-13T14:18:48.689Z,12.50
2022-11-13T14:21:22.239Z,12.50
2022-11-13T14:23:52.735Z,12.50
2022-11-13T14:26:22.228Z,12.50
2022-11-13T14:28:57.775Z,12.50
2022-11-13T14:31:30.035Z,12.40
2022-11-13T14:34:02.699Z,12.40
2022-11-13T14:36:35.386Z,12.40
2022-11-13T14:39:04.229Z,12.40
2022-11-13T14:41:36.424Z,12.40
2022-11-13T14:44:05.344Z,12.40
2022-11-13T14:46:36.854Z,12.30
2022-11-13T14:49:12.378Z,12.30
2022-11-13T14:51:42.652Z,12.30
2022-11-13T14:54:47.005Z,12.30
2022-11-13T14:57:18.421Z,12.30
2022-11-13T14:59:46.910Z,12.30
2022-11-13T15:02:16.064Z,12.30
2022-11-13T15:04:44.855Z,12.30
2022-11-13T15:07:29.881Z,12.30
2022-11-13T15:09:59.525Z,12.20
2022-11-13T15:12:28.649Z,12.20
2022-11-13T15:14:57.273Z,12.20
2022-11-13T15:17:26.120Z,12.30
2022-11-13T15:19:56.164Z,12.20
2022-11-13T15:22:28.044Z,12.20
2022-11-13T15:24:57.213Z,12.20
2022-11-13T15:27:26.510Z,12.20
2022-11-13T15:29:55.127Z,12.20
2022-11-13T15:32:24.901Z,12.20
2022-11-13T15:34:53.701Z,12.20
2022-11-13T15:37:22.771Z,12.10
2022-11-13T15:39:52.921Z,12.10
2022-11-13T15:42:29.294Z,12.10
2022-11-13T15:44:57.752Z,12.10
2022-11-13T15:47:29.806Z,12.10
2022-11-13T15:50:15.906Z,12.10
2022-11-13T15:52:48.987Z,12.10
2022-11-13T15:55:27.682Z,12.10
2022-11-13T15:57:57.354Z,12.10
2022-11-13T16:00:27.943Z,12.00
2022-11-13T16:02:58.271Z,12.00
2022-11-13T16:05:29.413Z,12.00
2022-11-13T16:07:59.377Z,12.00
2022-11-13T16:10:29.583Z,11.90
2022-11-13T16:12:58.353Z,11.90
2022-11-13T16:15:26.789Z,11.90
2022-11-13T16:17:58.193Z,11.90
2022-11-13T16:20:26.786Z,11.90
2022-11-13T16:22:56.080Z,11.90
2022-11-13T16:25:25.260Z,11.90
2022-11-13T16:27:55.591Z,11.90
2022-11-13T16:30:25.465Z,11.90
2022-11-13T16:32:54.300Z,11.90
2022-11-13T16:35:22.914Z,11.90
2022-11-13T16:37:51.555Z,11.80
2022-11-13T16:40:23.269Z,11.80
2022-11-13T16:42:52.540Z,11.80
2022-11-13T16:45:23.245Z,11.80
2022-11-13T16:47:52.103Z,11.80
2022-11-13T16:50:24.099Z,11.80
2022-11-13T16:52:53.426Z,11.80
2022-11-13T16:55:22.010Z,11.80
2022-11-13T16:57:50.890Z,11.70
2022-11-13T17:00:21.939Z,11.70
2022-11-13T17:02:52.680Z,11.70
2022-11-13T17:05:22.827Z,11.70
2022-11-13T17:07:52.113Z,11.60
2022-11-13T17:10:31.730Z,11.60
2022-11-13T17:13:01.971Z,11.60
2022-11-13T17:15:32.908Z,11.60
2022-11-13T17:18:01.788Z,11.50
2022-11-13T17:20:30.295Z,11.50
2022-11-13T17:22:59.140Z,11.50
2022-11-13T17:25:28.371Z,11.50
2022-11-13T17:27:57.359Z,11.40
2022-11-13T17:30:25.819Z,11.40
2022-11-13T17:32:56.042Z,11.40
2022-11-13T17:35:24.447Z,11.40
2022-11-13T17:37:53.104Z,11.40
2022-11-13T17:40:21.819Z,11.40
2022-11-13T17:42:50.778Z,11.40
2022-11-13T17:45:19.273Z,11.40
2022-11-13T17:47:50.031Z,11.40
2022-11-13T17:50:20.033Z,11.40
2022-11-13T17:52:48.717Z,11.40
2022-11-13T17:55:17.417Z,11.50
2022-11-13T17:57:46.303Z,11.50
2022-11-13T18:00:15.575Z,11.50
2022-11-13T18:02:44.556Z,11.50
2022-11-13T18:05:13.220Z,11.60
2022-11-13T18:07:43.537Z,11.60
2022-11-13T18:10:12.186Z,11.50
2022-11-13T18:12:40.969Z,11.50
2022-11-13T18:15:09.960Z,11.40
2022-11-13T18:17:38.783Z,11.40
2022-11-13T18:20:08.263Z,11.40
2022-11-13T18:22:37.149Z,11.30
2022-11-13T18:25:08.348Z,11.30
2022-11-13T18:27:38.942Z,11.30
2022-11-13T18:30:09.184Z,11.30
2022-11-13T18:32:38.197Z,11.30
2022-11-13T18:35:07.391Z,11.30
2022-11-13T18:37:36.243Z,11.30
2022-11-13T18:40:07.451Z,11.30
2022-11-13T18:42:36.111Z,11.30
2022-11-13T18:45:06.278Z,11.40
2022-11-13T18:47:35.364Z,11.50
2022-11-13T18:50:04.143Z,11.40
2022-11-13T18:52:32.875Z,11.40
2022-11-13T18:55:01.436Z,11.40
2022-11-13T18:57:31.633Z,11.30
2022-11-13T19:00:00.082Z,11.30
2022-11-13T19:02:29.034Z,11.30
2022-11-13T19:04:57.521Z,11.30
2022-11-13T19:07:26.413Z,11.20
2022-11-13T19:09:55.117Z,11.10
2022-11-13T19:12:24.386Z,11.10
2022-11-13T19:14:54.296Z,11.10
2022-11-13T19:17:22.912Z,11.00
2022-11-13T19:19:51.280Z,11.00
2022-11-13T19:22:20.077Z,11.00
2022-11-13T19:24:48.744Z,11.00
2022-11-13T19:27:17.628Z,11.00
2022-11-13T19:29:46.043Z,11.00
2022-11-13T19:32:16.412Z,10.90
2022-11-13T19:34:46.647Z,11.00
2022-11-13T19:37:19.096Z,10.90
2022-11-13T19:39:48.039Z,11.00
2022-11-13T19:42:16.932Z,10.90
2022-11-13T19:44:45.422Z,10.90
2022-11-13T19:47:15.740Z,10.90
2022-11-13T19:49:44.348Z,10.80
2022-11-13T19:52:13.163Z,10.80
2022-11-13T19:54:42.126Z,10.80
2022-11-13T19:57:10.734Z,10.80
2022-11-13T19:59:39.683Z,10.80
2022-11-13T20:02:08.423Z,10.80
2022-11-13T20:04:38.247Z,10.80
2022-11-13T20:07:07.134Z,10.80
2022-11-13T20:09:35.728Z,10.80
2022-11-13T20:12:04.749Z,10.80
2022-11-13T20:14:38.101Z,10.80
2022-11-13T20:17:07.413Z,10.80
2022-11-13T20:19:37.135Z,10.80
2022-11-13T20:22:05.874Z,10.80
2022-11-13T20:24:34.274Z,10.80
2022-11-13T20:27:02.916Z,10.80
2022-11-13T20:29:32.317Z,10.80
2022-11-13T20:32:01.698Z,10.70
2022-11-13T20:34:30.095Z,10.80
2022-11-13T20:37:00.210Z,10.70
2022-11-13T20:39:28.645Z,10.70
2022-11-13T20:41:57.314Z,10.70
2022-11-13T20:44:25.773Z,10.70
2022-11-13T20:46:54.500Z,10.70
2022-11-13T20:49:23.771Z,10.70
2022-11-13T20:51:56.801Z,10.70
2022-11-13T20:54:27.576Z,10.70
2022-11-13T20:56:56.102Z,10.70
2022-11-13T20:59:24.586Z,10.70
2022-11-13T21:01:53.457Z,10.70
2022-11-13T21:04:22.432Z,10.70
2022-11-13T21:06:52.541Z,10.70
2022-11-13T21:09:21.079Z,10.70
2022-11-13T21:11:51.214Z,10.70
2022-11-13T21:14:19.598Z,10.60
2022-11-13T21:16:48.291Z,10.60
2022-11-13T21:19:16.776Z,10.60
2022-11-13T21:21:45.418Z,10.60
2022-11-13T21:24:13.875Z,10.60
2022-11-13T21:26:42.744Z,10.60
2022-11-13T21:29:12.461Z,10.60
2022-11-13T21:31:41.216Z,10.50
2022-11-13T21:34:10.950Z,10.50
2022-11-13T21:36:39.525Z,10.50
2022-11-13T21:39:08.122Z,10.50
2022-11-13T21:41:36.855Z,10.50
2022-11-13T21:44:08.133Z,10.60
2022-11-13T21:46:42.086Z,10.50
2022-11-13T21:49:12.318Z,10.50
2022-11-13T21:51:42.761Z,10.50
2022-11-13T21:54:12.160Z,10.50
2022-11-13T21:56:42.513Z,10.50
2022-11-13T21:59:10.943Z,10.50
2022-11-13T22:01:40.976Z,10.50
2022-11-13T22:04:09.507Z,10.50
2022-11-13T22:06:39.708Z,10.60
2022-11-13T22:09:13.729Z,10.40
2022-11-13T22:11:42.486Z,10.50
2022-11-13T22:14:11.150Z,10.50
2022-11-13T22:16:42.757Z,10.50
2022-11-13T22:19:13.652Z,10.40
2022-11-13T22:21:43.077Z,10.40
2022-11-13T22:24:12.794Z,10.50
2022-11-13T22:26:45.370Z,10.40
2022-11-13T22:29:13.738Z,10.50
2022-11-13T22:31:45.122Z,10.40
2022-11-13T22:34:13.756Z,10.40
2022-11-13T22:36:42.274Z,10.40
2022-11-13T22:39:10.767Z,10.30
2022-11-13T22:41:39.414Z,10.40
2022-11-13T22:44:10.568Z,10.40
2022-11-13T22:46:39.075Z,10.40
2022-11-13T22:49:08.800Z,10.40
2022-11-13T22:51:41.554Z,10.40
2022-11-13T22:54:12.029Z,10.30
2022-11-13T22:56:42.227Z,10.30
2022-11-13T22:59:12.635Z,10.40
2022-11-13T23:01:43.964Z,10.30
2022-11-13T23:04:14.877Z,10.30
2022-11-13T23:06:44.104Z,10.40
2022-11-13T23:09:12.438Z,10.40
2022-11-13T23:11:42.334Z,10.30
2022-11-13T23:14:13.860Z,10.30
2022-11-13T23:16:42.977Z,10.40
2022-11-13T23:19:11.535Z,10.30
2022-11-13T23:21:41.255Z,10.30
2022-11-13T23:24:11.604Z,10.30
2022-11-13T23:26:40.501Z,10.30
2022-11-13T23:29:09.146Z,10.30
2022-11-13T23:31:37.549Z,10.20
2022-11-13T23:34:06.554Z,10.20
2022-11-13T23:36:34.862Z,10.20
2022-11-13T23:39:05.132Z,10.20
2022-11-13T23:41:33.529Z,10.20
2022-11-13T23:44:08.778Z,10.10
2022-11-13T23:46:38.068Z,10.20
2022-11-13T23:49:06.333Z,10.10
2022-11-13T23:51:34.899Z,10.10
2022-11-13T23:54:04.697Z,10.20
2022-11-13T23:56:33.400Z,10.10
2022-11-13T23:59:01.831Z,10.10
